sensor_id;sensor_type;location;lat;lon;timestamp;P1;durP1;ratioP1;P2;durP2;ratioP2
21943;SDS011;11136;48.778;9.126;2023-07-22T00:01:00;2.95;;;1.90;;
21943;SDS011;11136;48.778;9.126;2023-07-22T00:03:26;3.75;;;1.73;;
21943;SDS011;11136;48.778;9.126;2023-07-22T00:06:08;5.10;;;1.83;;
21943;SDS011;11136;48.778;9.126;2023-07-22T00:08:35;2.10;;;1.50;;
21943;SDS011;11136;48.778;9.126;2023-07-22T00:11:02;4.53;;;2.25;;
21943;SDS011;11136;48.778;9.126;2023-07-22T00:13:28;3.95;;;1.70;;
21943;SDS011;11136;48.778;9.126;2023-07-22T00:15:54;3.80;;;2.00;;
21943;SDS011;11136;48.778;9.126;2023-07-22T00:18:20;2.65;;;1.80;;
21943;SDS011;11136;48.778;9.126;2023-07-22T00:20:46;1.92;;;1.35;;
21943;SDS011;11136;48.778;9.126;2023-07-22T00:23:11;5.07;;;2.05;;
21943;SDS011;11136;48.778;9.126;2023-07-22T00:25:37;3.25;;;1.70;;
21943;SDS011;11136;48.778;9.126;2023-07-22T00:28:03;4.28;;;1.98;;
21943;SDS011;11136;48.778;9.126;2023-07-22T00:30:31;2.40;;;1.70;;
21943;SDS011;11136;48.778;9.126;2023-07-22T00:32:56;2.10;;;1.70;;
21943;SDS011;11136;48.778;9.126;2023-07-22T00:35:22;3.50;;;2.10;;
21943;SDS011;11136;48.778;9.126;2023-07-22T00:37:48;3.28;;;2.03;;
21943;SDS011;11136;48.778;9.126;2023-07-22T00:40:13;2.17;;;1.75;;
21943;SDS011;11136;48.778;9.126;2023-07-22T00:42:40;2.05;;;1.60;;
21943;SDS011;11136;48.778;9.126;2023-07-22T00:45:06;3.72;;;1.60;;
21943;SDS011;11136;48.778;9.126;2023-07-22T00:47:35;3.70;;;1.83;;
21943;SDS011;11136;48.778;9.126;2023-07-22T00:50:02;3.92;;;1.70;;
21943;SDS011;11136;48.778;9.126;2023-07-22T00:52:29;4.55;;;2.13;;
21943;SDS011;11136;48.778;9.126;2023-07-22T00:54:55;3.45;;;1.90;;
21943;SDS011;11136;48.778;9.126;2023-07-22T00:57:21;2.10;;;1.77;;
21943;SDS011;11136;48.778;9.126;2023-07-22T00:59:47;4.07;;;1.95;;
21943;SDS011;11136;48.778;9.126;2023-07-22T01:02:13;2.28;;;1.77;;
21943;SDS011;11136;48.778;9.126;2023-07-22T01:04:39;3.65;;;1.67;;
21943;SDS011;11136;48.778;9.126;2023-07-22T01:07:05;2.78;;;1.92;;
21943;SDS011;11136;48.778;9.126;2023-07-22T01:09:35;3.42;;;1.88;;
21943;SDS011;11136;48.778;9.126;2023-07-22T01:12:02;2.15;;;1.83;;
21943;SDS011;11136;48.778;9.126;2023-07-22T01:14:28;3.25;;;2.08;;
21943;SDS011;11136;48.778;9.126;2023-07-22T01:16:53;3.15;;;1.75;;
21943;SDS011;11136;48.778;9.126;2023-07-22T01:19:19;2.00;;;1.70;;
21943;SDS011;11136;48.778;9.126;2023-07-22T01:21:45;2.15;;;1.70;;
21943;SDS011;11136;48.778;9.126;2023-07-22T01:24:12;3.47;;;1.83;;
21943;SDS011;11136;48.778;9.126;2023-07-22T01:26:39;2.33;;;1.52;;
21943;SDS011;11136;48.778;9.126;2023-07-22T01:29:05;2.60;;;1.73;;
21943;SDS011;11136;48.778;9.126;2023-07-22T01:31:31;8.95;;;2.15;;
21943;SDS011;11136;48.778;9.126;2023-07-22T01:33:59;2.17;;;1.98;;
21943;SDS011;11136;48.778;9.126;2023-07-22T01:36:25;2.42;;;1.67;;
21943;SDS011;11136;48.778;9.126;2023-07-22T01:38:50;2.67;;;1.88;;
21943;SDS011;11136;48.778;9.126;2023-07-22T01:41:16;2.13;;;1.50;;
21943;SDS011;11136;48.778;9.126;2023-07-22T01:43:41;2.85;;;1.70;;
21943;SDS011;11136;48.778;9.126;2023-07-22T01:46:07;2.75;;;1.50;;
21943;SDS011;11136;48.778;9.126;2023-07-22T01:48:33;5.60;;;2.55;;
21943;SDS011;11136;48.778;9.126;2023-07-22T01:50:58;3.17;;;1.73;;
21943;SDS011;11136;48.778;9.126;2023-07-22T01:53:24;3.33;;;1.88;;
21943;SDS011;11136;48.778;9.126;2023-07-22T01:55:49;2.38;;;1.60;;
21943;SDS011;11136;48.778;9.126;2023-07-22T01:58:15;1.83;;;1.55;;
21943;SDS011;11136;48.778;9.126;2023-07-22T02:00:40;5.30;;;1.70;;
21943;SDS011;11136;48.778;9.126;2023-07-22T02:03:06;1.83;;;1.50;;
21943;SDS011;11136;48.778;9.126;2023-07-22T02:05:32;2.55;;;1.67;;
21943;SDS011;11136;48.778;9.126;2023-07-22T02:07:57;2.70;;;1.70;;
21943;SDS011;11136;48.778;9.126;2023-07-22T02:10:23;3.22;;;1.65;;
21943;SDS011;11136;48.778;9.126;2023-07-22T02:12:48;7.07;;;2.40;;
21943;SDS011;11136;48.778;9.126;2023-07-22T02:15:14;3.53;;;2.03;;
21943;SDS011;11136;48.778;9.126;2023-07-22T02:17:40;3.10;;;1.73;;
21943;SDS011;11136;48.778;9.126;2023-07-22T02:20:07;2.10;;;1.80;;
21943;SDS011;11136;48.778;9.126;2023-07-22T02:22:34;3.25;;;1.83;;
21943;SDS011;11136;48.778;9.126;2023-07-22T02:24:59;3.53;;;1.70;;
21943;SDS011;11136;48.778;9.126;2023-07-22T02:27:25;2.33;;;1.70;;
21943;SDS011;11136;48.778;9.126;2023-07-22T02:29:51;2.40;;;1.95;;
21943;SDS011;11136;48.778;9.126;2023-07-22T02:32:17;3.47;;;1.80;;
21943;SDS011;11136;48.778;9.126;2023-07-22T02:34:44;3.50;;;2.03;;
21943;SDS011;11136;48.778;9.126;2023-07-22T02:37:09;4.30;;;2.00;;
21943;SDS011;11136;48.778;9.126;2023-07-22T02:39:35;1.73;;;1.48;;
21943;SDS011;11136;48.778;9.126;2023-07-22T02:42:00;2.85;;;1.80;;
21943;SDS011;11136;48.778;9.126;2023-07-22T02:44:26;3.35;;;1.90;;
21943;SDS011;11136;48.778;9.126;2023-07-22T02:46:52;3.30;;;1.73;;
21943;SDS011;11136;48.778;9.126;2023-07-22T02:49:17;2.55;;;1.77;;
21943;SDS011;11136;48.778;9.126;2023-07-22T02:51:43;4.38;;;1.73;;
21943;SDS011;11136;48.778;9.126;2023-07-22T02:54:09;2.83;;;1.70;;
21943;SDS011;11136;48.778;9.126;2023-07-22T02:56:34;2.72;;;1.67;;
21943;SDS011;11136;48.778;9.126;2023-07-22T02:59:00;2.30;;;2.05;;
21943;SDS011;11136;48.778;9.126;2023-07-22T03:01:25;2.15;;;1.77;;
21943;SDS011;11136;48.778;9.126;2023-07-22T03:03:51;4.38;;;1.50;;
21943;SDS011;11136;48.778;9.126;2023-07-22T03:06:17;4.05;;;1.73;;
21943;SDS011;11136;48.778;9.126;2023-07-22T03:08:42;2.60;;;1.67;;
21943;SDS011;11136;48.778;9.126;2023-07-22T03:11:08;2.45;;;1.90;;
21943;SDS011;11136;48.778;9.126;2023-07-22T03:13:34;3.42;;;1.80;;
21943;SDS011;11136;48.778;9.126;2023-07-22T03:16:01;4.07;;;1.90;;
21943;SDS011;11136;48.778;9.126;2023-07-22T03:18:30;3.22;;;1.80;;
21943;SDS011;11136;48.778;9.126;2023-07-22T03:20:56;2.38;;;1.92;;
21943;SDS011;11136;48.778;9.126;2023-07-22T03:23:22;4.05;;;2.47;;
21943;SDS011;11136;48.778;9.126;2023-07-22T03:25:48;2.53;;;1.95;;
21943;SDS011;11136;48.778;9.126;2023-07-22T03:28:15;4.40;;;2.30;;
21943;SDS011;11136;48.778;9.126;2023-07-22T03:30:41;3.67;;;1.83;;
21943;SDS011;11136;48.778;9.126;2023-07-22T03:33:07;3.83;;;1.63;;
21943;SDS011;11136;48.778;9.126;2023-07-22T03:35:34;3.30;;;2.10;;
21943;SDS011;11136;48.778;9.126;2023-07-22T03:38:00;3.70;;;2.20;;
21943;SDS011;11136;48.778;9.126;2023-07-22T03:40:26;4.38;;;1.70;;
21943;SDS011;11136;48.778;9.126;2023-07-22T03:42:54;2.60;;;2.05;;
21943;SDS011;11136;48.778;9.126;2023-07-22T03:45:21;2.63;;;1.75;;
21943;SDS011;11136;48.778;9.126;2023-07-22T03:47:50;2.60;;;1.80;;
21943;SDS011;11136;48.778;9.126;2023-07-22T03:50:17;2.40;;;1.95;;
21943;SDS011;11136;48.778;9.126;2023-07-22T03:52:43;2.58;;;1.92;;
21943;SDS011;11136;48.778;9.126;2023-07-22T03:55:09;2.88;;;1.80;;
21943;SDS011;11136;48.778;9.126;2023-07-22T03:57:36;3.67;;;2.03;;
21943;SDS011;11136;48.778;9.126;2023-07-22T04:00:03;4.28;;;1.95;;
21943;SDS011;11136;48.778;9.126;2023-07-22T04:02:30;3.05;;;2.10;;
21943;SDS011;11136;48.778;9.126;2023-07-22T04:04:56;2.80;;;2.20;;
21943;SDS011;11136;48.778;9.126;2023-07-22T04:07:22;4.32;;;2.33;;
21943;SDS011;11136;48.778;9.126;2023-07-22T04:09:48;2.47;;;2.20;;
21943;SDS011;11136;48.778;9.126;2023-07-22T04:12:14;7.60;;;2.22;;
21943;SDS011;11136;48.778;9.126;2023-07-22T04:14:40;3.15;;;2.17;;
21943;SDS011;11136;48.778;9.126;2023-07-22T04:17:06;2.60;;;1.85;;
21943;SDS011;11136;48.778;9.126;2023-07-22T04:19:31;3.10;;;1.85;;
21943;SDS011;11136;48.778;9.126;2023-07-22T04:21:57;1.88;;;1.55;;
21943;SDS011;11136;48.778;9.126;2023-07-22T04:24:23;3.50;;;2.00;;
21943;SDS011;11136;48.778;9.126;2023-07-22T04:26:51;3.80;;;1.90;;
21943;SDS011;11136;48.778;9.126;2023-07-22T04:29:16;3.03;;;2.00;;
21943;SDS011;11136;48.778;9.126;2023-07-22T04:31:42;2.28;;;1.63;;
21943;SDS011;11136;48.778;9.126;2023-07-22T04:34:08;4.45;;;1.80;;
21943;SDS011;11136;48.778;9.126;2023-07-22T04:36:34;3.72;;;2.03;;
21943;SDS011;11136;48.778;9.126;2023-07-22T04:39:00;4.13;;;1.98;;
21943;SDS011;11136;48.778;9.126;2023-07-22T04:41:25;2.63;;;2.05;;
21943;SDS011;11136;48.778;9.126;2023-07-22T04:43:51;2.25;;;1.90;;
21943;SDS011;11136;48.778;9.126;2023-07-22T04:46:19;2.17;;;1.83;;
21943;SDS011;11136;48.778;9.126;2023-07-22T04:48:44;2.80;;;1.90;;
21943;SDS011;11136;48.778;9.126;2023-07-22T04:51:10;2.20;;;1.83;;
21943;SDS011;11136;48.778;9.126;2023-07-22T04:53:35;5.07;;;1.80;;
21943;SDS011;11136;48.778;9.126;2023-07-22T04:56:01;2.03;;;1.55;;
21943;SDS011;11136;48.778;9.126;2023-07-22T04:58:27;3.15;;;1.92;;
21943;SDS011;11136;48.778;9.126;2023-07-22T05:00:53;3.25;;;1.90;;
21943;SDS011;11136;48.778;9.126;2023-07-22T05:03:19;2.75;;;1.67;;
21943;SDS011;11136;48.778;9.126;2023-07-22T05:05:44;2.35;;;1.95;;
21943;SDS011;11136;48.778;9.126;2023-07-22T05:08:10;3.35;;;2.20;;
21943;SDS011;11136;48.778;9.126;2023-07-22T05:10:37;4.30;;;2.22;;
21943;SDS011;11136;48.778;9.126;2023-07-22T05:13:04;3.15;;;1.95;;
21943;SDS011;11136;48.778;9.126;2023-07-22T05:15:30;5.25;;;2.22;;
21943;SDS011;11136;48.778;9.126;2023-07-22T05:17:55;3.60;;;2.30;;
21943;SDS011;11136;48.778;9.126;2023-07-22T05:20:21;4.05;;;2.03;;
21943;SDS011;11136;48.778;9.126;2023-07-22T05:22:47;3.42;;;2.10;;
21943;SDS011;11136;48.778;9.126;2023-07-22T05:25:13;3.28;;;1.88;;
21943;SDS011;11136;48.778;9.126;2023-07-22T05:27:39;4.22;;;2.15;;
21943;SDS011;11136;48.778;9.126;2023-07-22T05:30:05;2.95;;;1.85;;
21943;SDS011;11136;48.778;9.126;2023-07-22T05:32:32;3.28;;;2.00;;
21943;SDS011;11136;48.778;9.126;2023-07-22T05:34:58;8.82;;;2.75;;
21943;SDS011;11136;48.778;9.126;2023-07-22T05:37:24;5.32;;;2.42;;
21943;SDS011;11136;48.778;9.126;2023-07-22T05:39:50;3.20;;;1.90;;
21943;SDS011;11136;48.778;9.126;2023-07-22T05:42:17;3.70;;;1.95;;
21943;SDS011;11136;48.778;9.126;2023-07-22T05:44:43;4.35;;;1.83;;
21943;SDS011;11136;48.778;9.126;2023-07-22T05:47:09;2.58;;;1.80;;
21943;SDS011;11136;48.778;9.126;2023-07-22T05:49:35;3.33;;;1.73;;
21943;SDS011;11136;48.778;9.126;2023-07-22T05:52:01;3.15;;;2.03;;
21943;SDS011;11136;48.778;9.126;2023-07-22T05:54:26;2.97;;;1.90;;
21943;SDS011;11136;48.778;9.126;2023-07-22T05:56:52;3.72;;;2.00;;
21943;SDS011;11136;48.778;9.126;2023-07-22T05:59:17;2.65;;;1.85;;
21943;SDS011;11136;48.778;9.126;2023-07-22T06:01:43;3.08;;;1.70;;
21943;SDS011;11136;48.778;9.126;2023-07-22T06:04:09;4.70;;;1.95;;
21943;SDS011;11136;48.778;9.126;2023-07-22T06:06:35;4.40;;;2.17;;
21943;SDS011;11136;48.778;9.126;2023-07-22T06:09:01;3.50;;;1.98;;
21943;SDS011;11136;48.778;9.126;2023-07-22T06:11:26;3.20;;;2.10;;
21943;SDS011;11136;48.778;9.126;2023-07-22T06:13:53;2.35;;;1.90;;
21943;SDS011;11136;48.778;9.126;2023-07-22T06:16:19;4.75;;;2.60;;
21943;SDS011;11136;48.778;9.126;2023-07-22T06:18:44;4.57;;;2.17;;
21943;SDS011;11136;48.778;9.126;2023-07-22T06:21:11;3.05;;;1.60;;
21943;SDS011;11136;48.778;9.126;2023-07-22T06:23:37;4.00;;;2.13;;
21943;SDS011;11136;48.778;9.126;2023-07-22T06:26:02;4.18;;;2.10;;
21943;SDS011;11136;48.778;9.126;2023-07-22T06:28:28;2.40;;;1.70;;
21943;SDS011;11136;48.778;9.126;2023-07-22T06:30:53;3.08;;;2.13;;
21943;SDS011;11136;48.778;9.126;2023-07-22T06:33:19;7.15;;;2.65;;
21943;SDS011;11136;48.778;9.126;2023-07-22T06:35:44;3.20;;;2.00;;
21943;SDS011;11136;48.778;9.126;2023-07-22T06:38:11;6.63;;;2.38;;
21943;SDS011;11136;48.778;9.126;2023-07-22T06:40:36;7.75;;;2.78;;
21943;SDS011;11136;48.778;9.126;2023-07-22T06:43:02;5.82;;;2.30;;
21943;SDS011;11136;48.778;9.126;2023-07-22T06:45:27;3.40;;;2.13;;
21943;SDS011;11136;48.778;9.126;2023-07-22T06:47:53;3.80;;;1.90;;
21943;SDS011;11136;48.778;9.126;2023-07-22T06:50:18;3.03;;;1.90;;
21943;SDS011;11136;48.778;9.126;2023-07-22T06:52:44;3.17;;;1.80;;
21943;SDS011;11136;48.778;9.126;2023-07-22T06:55:09;3.88;;;2.22;;
21943;SDS011;11136;48.778;9.126;2023-07-22T06:57:35;3.45;;;2.33;;
21943;SDS011;11136;48.778;9.126;2023-07-22T07:00:03;4.60;;;2.15;;
21943;SDS011;11136;48.778;9.126;2023-07-22T07:02:30;3.20;;;1.90;;
21943;SDS011;11136;48.778;9.126;2023-07-22T07:04:55;4.30;;;2.25;;
21943;SDS011;11136;48.778;9.126;2023-07-22T07:07:21;5.30;;;2.50;;
21943;SDS011;11136;48.778;9.126;2023-07-22T07:09:47;5.88;;;2.10;;
21943;SDS011;11136;48.778;9.126;2023-07-22T07:12:12;2.90;;;2.03;;
21943;SDS011;11136;48.778;9.126;2023-07-22T07:14:38;3.75;;;2.10;;
21943;SDS011;11136;48.778;9.126;2023-07-22T07:17:03;2.75;;;1.90;;
21943;SDS011;11136;48.778;9.126;2023-07-22T07:19:29;2.67;;;1.48;;
21943;SDS011;11136;48.778;9.126;2023-07-22T07:21:55;3.85;;;2.08;;
21943;SDS011;11136;48.778;9.126;2023-07-22T07:24:20;2.38;;;1.83;;
21943;SDS011;11136;48.778;9.126;2023-07-22T07:26:46;3.30;;;1.80;;
21943;SDS011;11136;48.778;9.126;2023-07-22T07:29:11;3.53;;;1.83;;
21943;SDS011;11136;48.778;9.126;2023-07-22T07:31:37;10.25;;;2.42;;
21943;SDS011;11136;48.778;9.126;2023-07-22T07:34:03;2.92;;;1.70;;
21943;SDS011;11136;48.778;9.126;2023-07-22T07:36:29;3.55;;;2.10;;
21943;SDS011;11136;48.778;9.126;2023-07-22T07:38:55;2.78;;;1.75;;
21943;SDS011;11136;48.778;9.126;2023-07-22T07:41:20;2.83;;;1.77;;
21943;SDS011;11136;48.778;9.126;2023-07-22T07:43:46;4.55;;;2.08;;
21943;SDS011;11136;48.778;9.126;2023-07-22T07:48:37;4.80;;;1.73;;
21943;SDS011;11136;48.778;9.126;2023-07-22T07:51:03;3.13;;;1.88;;
21943;SDS011;11136;48.778;9.126;2023-07-22T07:53:28;3.75;;;1.67;;
21943;SDS011;11136;48.778;9.126;2023-07-22T07:55:54;2.20;;;1.80;;
21943;SDS011;11136;48.778;9.126;2023-07-22T07:58:20;6.03;;;1.85;;
21943;SDS011;11136;48.778;9.126;2023-07-22T08:00:45;1.77;;;1.40;;
21943;SDS011;11136;48.778;9.126;2023-07-22T08:03:11;3.05;;;1.92;;
21943;SDS011;11136;48.778;9.126;2023-07-22T08:05:36;3.75;;;1.80;;
21943;SDS011;11136;48.778;9.126;2023-07-22T08:08:02;4.32;;;2.03;;
21943;SDS011;11136;48.778;9.126;2023-07-22T08:10:28;2.63;;;1.52;;
21943;SDS011;11136;48.778;9.126;2023-07-22T08:12:54;2.72;;;1.67;;
21943;SDS011;11136;48.778;9.126;2023-07-22T08:15:20;2.97;;;2.13;;
21943;SDS011;11136;48.778;9.126;2023-07-22T08:17:46;1.63;;;1.38;;
21943;SDS011;11136;48.778;9.126;2023-07-22T08:20:11;3.60;;;2.03;;
21943;SDS011;11136;48.778;9.126;2023-07-22T08:22:37;2.15;;;1.55;;
21943;SDS011;11136;48.778;9.126;2023-07-22T08:25:03;3.13;;;2.10;;
21943;SDS011;11136;48.778;9.126;2023-07-22T08:27:29;3.08;;;1.73;;
21943;SDS011;11136;48.778;9.126;2023-07-22T08:29:54;1.95;;;1.40;;
21943;SDS011;11136;48.778;9.126;2023-07-22T08:32:20;2.28;;;1.45;;
21943;SDS011;11136;48.778;9.126;2023-07-22T08:34:46;1.90;;;1.60;;
21943;SDS011;11136;48.778;9.126;2023-07-22T08:37:11;2.13;;;1.58;;
21943;SDS011;11136;48.778;9.126;2023-07-22T08:39:37;3.83;;;1.40;;
21943;SDS011;11136;48.778;9.126;2023-07-22T08:42:03;1.63;;;1.40;;
21943;SDS011;11136;48.778;9.126;2023-07-22T08:44:30;3.90;;;1.52;;
21943;SDS011;11136;48.778;9.126;2023-07-22T08:49:28;3.30;;;1.42;;
21943;SDS011;11136;48.778;9.126;2023-07-22T08:51:55;2.42;;;1.50;;
21943;SDS011;11136;48.778;9.126;2023-07-22T08:54:22;3.95;;;1.40;;
21943;SDS011;11136;48.778;9.126;2023-07-22T08:56:49;2.63;;;1.17;;
21943;SDS011;11136;48.778;9.126;2023-07-22T08:59:17;1.38;;;1.27;;
21943;SDS011;11136;48.778;9.126;2023-07-22T09:01:43;2.17;;;1.48;;
21943;SDS011;11136;48.778;9.126;2023-07-22T09:04:09;2.13;;;1.35;;
21943;SDS011;11136;48.778;9.126;2023-07-22T09:06:34;2.25;;;1.45;;
21943;SDS011;11136;48.778;9.126;2023-07-22T09:09:01;2.40;;;1.30;;
21943;SDS011;11136;48.778;9.126;2023-07-22T09:13:57;1.75;;;1.50;;
21943;SDS011;11136;48.778;9.126;2023-07-22T09:16:23;2.42;;;1.45;;
21943;SDS011;11136;48.778;9.126;2023-07-22T09:18:54;3.22;;;1.45;;
21943;SDS011;11136;48.778;9.126;2023-07-22T09:21:20;2.53;;;1.65;;
21943;SDS011;11136;48.778;9.126;2023-07-22T09:23:46;1.70;;;1.40;;
21943;SDS011;11136;48.778;9.126;2023-07-22T09:26:12;1.92;;;1.40;;
21943;SDS011;11136;48.778;9.126;2023-07-22T09:28:49;4.97;;;2.13;;
21943;SDS011;11136;48.778;9.126;2023-07-22T09:31:22;3.92;;;1.70;;
21943;SDS011;11136;48.778;9.126;2023-07-22T09:33:49;1.80;;;1.45;;
21943;SDS011;11136;48.778;9.126;2023-07-22T09:36:16;4.80;;;1.40;;
21943;SDS011;11136;48.778;9.126;2023-07-22T09:38:42;2.92;;;1.50;;
21943;SDS011;11136;48.778;9.126;2023-07-22T09:41:07;1.70;;;1.30;;
21943;SDS011;11136;48.778;9.126;2023-07-22T09:43:38;2.78;;;1.40;;
21943;SDS011;11136;48.778;9.126;2023-07-22T09:46:10;1.67;;;1.35;;
21943;SDS011;11136;48.778;9.126;2023-07-22T09:48:43;2.13;;;1.70;;
21943;SDS011;11136;48.778;9.126;2023-07-22T09:51:13;3.38;;;1.58;;
21943;SDS011;11136;48.778;9.126;2023-07-22T09:53:46;1.95;;;1.17;;
21943;SDS011;11136;48.778;9.126;2023-07-22T09:56:13;2.38;;;1.55;;
21943;SDS011;11136;48.778;9.126;2023-07-22T09:58:39;3.80;;;1.52;;
21943;SDS011;11136;48.778;9.126;2023-07-22T10:01:05;2.40;;;1.40;;
21943;SDS011;11136;48.778;9.126;2023-07-22T10:03:32;1.52;;;1.20;;
21943;SDS011;11136;48.778;9.126;2023-07-22T10:06:00;1.63;;;1.30;;
21943;SDS011;11136;48.778;9.126;2023-07-22T10:08:30;3.25;;;1.70;;
21943;SDS011;11136;48.778;9.126;2023-07-22T10:11:00;2.80;;;1.30;;
21943;SDS011;11136;48.778;9.126;2023-07-22T10:13:30;3.00;;;1.42;;
21943;SDS011;11136;48.778;9.126;2023-07-22T10:15:57;2.03;;;1.40;;
21943;SDS011;11136;48.778;9.126;2023-07-22T10:18:23;2.00;;;1.40;;
21943;SDS011;11136;48.778;9.126;2023-07-22T10:20:49;1.92;;;1.40;;
21943;SDS011;11136;48.778;9.126;2023-07-22T10:23:16;1.50;;;1.38;;
21943;SDS011;11136;48.778;9.126;2023-07-22T10:25:43;1.83;;;1.20;;
21943;SDS011;11136;48.778;9.126;2023-07-22T10:28:10;3.30;;;1.42;;
21943;SDS011;11136;48.778;9.126;2023-07-22T10:30:37;2.10;;;1.42;;
21943;SDS011;11136;48.778;9.126;2023-07-22T10:33:02;1.30;;;1.20;;
21943;SDS011;11136;48.778;9.126;2023-07-22T10:38:13;2.05;;;1.00;;
21943;SDS011;11136;48.778;9.126;2023-07-22T10:40:47;3.35;;;1.40;;
21943;SDS011;11136;48.778;9.126;2023-07-22T10:43:32;2.30;;;1.13;;
21943;SDS011;11136;48.778;9.126;2023-07-22T10:46:04;5.05;;;1.30;;
21943;SDS011;11136;48.778;9.126;2023-07-22T10:48:34;1.30;;;1.20;;
21943;SDS011;11136;48.778;9.126;2023-07-22T10:51:06;2.03;;;1.40;;
21943;SDS011;11136;48.778;9.126;2023-07-22T10:53:38;2.65;;;1.88;;
21943;SDS011;11136;48.778;9.126;2023-07-22T11:12:03;2.33;;;1.20;;
21943;SDS011;11136;48.778;9.126;2023-07-22T11:14:34;6.28;;;1.67;;
21943;SDS011;11136;48.778;9.126;2023-07-22T11:17:04;4.18;;;1.52;;
21943;SDS011;11136;48.778;9.126;2023-07-22T11:19:31;1.95;;;1.40;;
21943;SDS011;11136;48.778;9.126;2023-07-22T11:21:58;4.97;;;1.83;;
21943;SDS011;11136;48.778;9.126;2023-07-22T11:24:24;2.67;;;1.60;;
21943;SDS011;11136;48.778;9.126;2023-07-22T11:26:51;1.55;;;1.40;;
21943;SDS011;11136;48.778;9.126;2023-07-22T11:29:17;2.33;;;1.50;;
21943;SDS011;11136;48.778;9.126;2023-07-22T11:31:44;3.25;;;1.17;;
21943;SDS011;11136;48.778;9.126;2023-07-22T11:34:15;1.55;;;1.40;;
21943;SDS011;11136;48.778;9.126;2023-07-22T11:36:42;2.17;;;1.65;;
21943;SDS011;11136;48.778;9.126;2023-07-22T11:39:09;1.95;;;1.55;;
21943;SDS011;11136;48.778;9.126;2023-07-22T11:41:39;1.42;;;1.25;;
21943;SDS011;11136;48.778;9.126;2023-07-22T11:44:09;1.80;;;1.20;;
21943;SDS011;11136;48.778;9.126;2023-07-22T11:46:54;2.20;;;1.38;;
21943;SDS011;11136;48.778;9.126;2023-07-22T11:49:38;1.50;;;1.30;;
21943;SDS011;11136;48.778;9.126;2023-07-22T11:52:09;2.40;;;1.50;;
21943;SDS011;11136;48.778;9.126;2023-07-22T12:02:14;1.52;;;1.23;;
21943;SDS011;11136;48.778;9.126;2023-07-22T12:04:52;1.52;;;1.42;;
21943;SDS011;11136;48.778;9.126;2023-07-22T12:09:51;1.63;;;1.52;;
21943;SDS011;11136;48.778;9.126;2023-07-22T12:12:18;1.77;;;1.30;;
21943;SDS011;11136;48.778;9.126;2023-07-22T12:14:44;3.47;;;1.40;;
21943;SDS011;11136;48.778;9.126;2023-07-22T12:17:10;2.78;;;1.65;;
21943;SDS011;11136;48.778;9.126;2023-07-22T12:19:35;3.03;;;1.67;;
21943;SDS011;11136;48.778;9.126;2023-07-22T12:22:01;2.70;;;1.60;;
21943;SDS011;11136;48.778;9.126;2023-07-22T12:24:27;2.83;;;2.00;;
21943;SDS011;11136;48.778;9.126;2023-07-22T12:26:53;1.55;;;1.35;;
21943;SDS011;11136;48.778;9.126;2023-07-22T12:29:19;1.42;;;1.30;;
21943;SDS011;11136;48.778;9.126;2023-07-22T12:31:45;2.40;;;1.73;;
21943;SDS011;11136;48.778;9.126;2023-07-22T12:34:10;3.08;;;1.33;;
21943;SDS011;11136;48.778;9.126;2023-07-22T12:36:36;2.63;;;1.67;;
21943;SDS011;11136;48.778;9.126;2023-07-22T12:39:02;2.92;;;1.67;;
21943;SDS011;11136;48.778;9.126;2023-07-22T12:41:28;1.80;;;1.40;;
21943;SDS011;11136;48.778;9.126;2023-07-22T12:43:53;2.08;;;1.52;;
21943;SDS011;11136;48.778;9.126;2023-07-22T12:46:19;2.20;;;1.40;;
21943;SDS011;11136;48.778;9.126;2023-07-22T12:48:45;2.80;;;1.83;;
21943;SDS011;11136;48.778;9.126;2023-07-22T12:51:10;2.63;;;1.83;;
21943;SDS011;11136;48.778;9.126;2023-07-22T12:53:36;2.80;;;1.80;;
21943;SDS011;11136;48.778;9.126;2023-07-22T12:56:02;5.43;;;1.70;;
21943;SDS011;11136;48.778;9.126;2023-07-22T12:58:28;3.83;;;1.90;;
21943;SDS011;11136;48.778;9.126;2023-07-22T13:01:00;2.72;;;1.90;;
21943;SDS011;11136;48.778;9.126;2023-07-22T13:03:25;3.10;;;2.38;;
21943;SDS011;11136;48.778;9.126;2023-07-22T13:05:51;2.53;;;1.90;;
21943;SDS011;11136;48.778;9.126;2023-07-22T13:08:16;3.20;;;1.52;;
21943;SDS011;11136;48.778;9.126;2023-07-22T13:10:42;3.05;;;2.25;;
21943;SDS011;11136;48.778;9.126;2023-07-22T13:13:10;3.58;;;1.83;;
21943;SDS011;11136;48.778;9.126;2023-07-22T13:15:35;2.25;;;2.05;;
21943;SDS011;11136;48.778;9.126;2023-07-22T13:18:01;4.35;;;2.13;;
21943;SDS011;11136;48.778;9.126;2023-07-22T13:20:28;4.22;;;1.92;;
21943;SDS011;11136;48.778;9.126;2023-07-22T13:22:54;4.03;;;1.75;;
21943;SDS011;11136;48.778;9.126;2023-07-22T13:25:20;2.65;;;1.90;;
21943;SDS011;11136;48.778;9.126;2023-07-22T13:27:46;4.47;;;2.17;;
21943;SDS011;11136;48.778;9.126;2023-07-22T13:30:12;2.60;;;2.05;;
21943;SDS011;11136;48.778;9.126;2023-07-22T13:32:38;3.80;;;2.17;;
21943;SDS011;11136;48.778;9.126;2023-07-22T13:35:05;2.55;;;1.73;;
21943;SDS011;11136;48.778;9.126;2023-07-22T13:37:31;2.60;;;1.92;;
21943;SDS011;11136;48.778;9.126;2023-07-22T13:39:56;2.63;;;1.95;;
21943;SDS011;11136;48.778;9.126;2023-07-22T13:42:23;2.03;;;1.75;;
21943;SDS011;11136;48.778;9.126;2023-07-22T13:44:49;4.05;;;2.00;;
21943;SDS011;11136;48.778;9.126;2023-07-22T13:47:15;4.45;;;2.10;;
21943;SDS011;11136;48.778;9.126;2023-07-22T13:49:40;2.63;;;2.10;;
21943;SDS011;11136;48.778;9.126;2023-07-22T13:52:06;2.85;;;2.13;;
21943;SDS011;11136;48.778;9.126;2023-07-22T13:54:31;3.40;;;2.13;;
21943;SDS011;11136;48.778;9.126;2023-07-22T13:56:57;2.85;;;2.08;;
21943;SDS011;11136;48.778;9.126;2023-07-22T13:59:23;5.78;;;2.35;;
21943;SDS011;11136;48.778;9.126;2023-07-22T14:01:48;7.80;;;2.20;;
21943;SDS011;11136;48.778;9.126;2023-07-22T14:04:14;3.10;;;2.30;;
21943;SDS011;11136;48.778;9.126;2023-07-22T14:06:39;2.88;;;2.17;;
21943;SDS011;11136;48.778;9.126;2023-07-22T14:09:05;5.28;;;1.98;;
21943;SDS011;11136;48.778;9.126;2023-07-22T14:11:30;3.17;;;2.30;;
21943;SDS011;11136;48.778;9.126;2023-07-22T14:13:56;2.50;;;2.08;;
21943;SDS011;11136;48.778;9.126;2023-07-22T14:16:22;2.55;;;2.28;;
21943;SDS011;11136;48.778;9.126;2023-07-22T14:18:47;3.92;;;2.22;;
21943;SDS011;11136;48.778;9.126;2023-07-22T14:21:13;2.53;;;2.10;;
21943;SDS011;11136;48.778;9.126;2023-07-22T14:23:38;2.95;;;2.30;;
21943;SDS011;11136;48.778;9.126;2023-07-22T14:26:04;2.38;;;1.98;;
21943;SDS011;11136;48.778;9.126;2023-07-22T14:28:29;2.53;;;1.67;;
21943;SDS011;11136;48.778;9.126;2023-07-22T14:30:55;2.30;;;2.10;;
21943;SDS011;11136;48.778;9.126;2023-07-22T14:33:21;3.15;;;2.10;;
21943;SDS011;11136;48.778;9.126;2023-07-22T14:35:46;2.38;;;1.80;;
21943;SDS011;11136;48.778;9.126;2023-07-22T14:38:12;2.55;;;1.90;;
21943;SDS011;11136;48.778;9.126;2023-07-22T14:40:37;2.92;;;2.22;;
21943;SDS011;11136;48.778;9.126;2023-07-22T14:43:03;5.45;;;2.33;;
21943;SDS011;11136;48.778;9.126;2023-07-22T14:45:29;5.57;;;2.15;;
21943;SDS011;11136;48.778;9.126;2023-07-22T14:47:54;5.50;;;2.70;;
21943;SDS011;11136;48.778;9.126;2023-07-22T14:50:20;4.47;;;2.15;;
21943;SDS011;11136;48.778;9.126;2023-07-22T14:52:46;3.05;;;2.00;;
21943;SDS011;11136;48.778;9.126;2023-07-22T14:55:11;4.68;;;2.20;;
21943;SDS011;11136;48.778;9.126;2023-07-22T14:57:37;3.67;;;2.70;;
21943;SDS011;11136;48.778;9.126;2023-07-22T15:00:02;4.55;;;2.65;;
21943;SDS011;11136;48.778;9.126;2023-07-22T15:02:28;3.72;;;2.80;;
21943;SDS011;11136;48.778;9.126;2023-07-22T15:04:54;3.20;;;2.40;;
21943;SDS011;11136;48.778;9.126;2023-07-22T15:07:20;3.58;;;2.47;;
21943;SDS011;11136;48.778;9.126;2023-07-22T15:09:46;3.55;;;2.85;;
21943;SDS011;11136;48.778;9.126;2023-07-22T15:12:12;3.22;;;2.55;;
21943;SDS011;11136;48.778;9.126;2023-07-22T15:14:38;2.92;;;2.55;;
21943;SDS011;11136;48.778;9.126;2023-07-22T15:17:03;3.85;;;2.60;;
21943;SDS011;11136;48.778;9.126;2023-07-22T15:19:30;3.05;;;2.28;;